sensor_id;sensor_type;location;lat;lon;timestamp;P1;durP1;ratioP1;P2;durP2;ratioP2
3995;SDS011;2012;49.794;9.722;2023-06-14T00:02:02;6.03;;;5.30;;
3995;SDS011;2012;49.794;9.722;2023-06-14T00:04:30;10.00;;;5.57;;
3995;SDS011;2012;49.794;9.722;2023-06-14T00:06:57;7.73;;;4.50;;
3995;SDS011;2012;49.794;9.722;2023-06-14T00:09:24;6.33;;;5.23;;
3995;SDS011;2012;49.794;9.722;2023-06-14T00:11:51;7.67;;;5.07;;
3995;SDS011;2012;49.794;9.722;2023-06-14T00:14:18;6.23;;;5.00;;
3995;SDS011;2012;49.794;9.722;2023-06-14T00:16:45;8.03;;;5.60;;
3995;SDS011;2012;49.794;9.722;2023-06-14T00:19:12;6.87;;;6.07;;
3995;SDS011;2012;49.794;9.722;2023-06-14T00:21:39;8.20;;;4.57;;
3995;SDS011;2012;49.794;9.722;2023-06-14T00:24:07;6.67;;;4.77;;
3995;SDS011;2012;49.794;9.722;2023-06-14T00:26:34;13.00;;;4.63;;
3995;SDS011;2012;49.794;9.722;2023-06-14T00:29:01;5.80;;;5.17;;
3995;SDS011;2012;49.794;9.722;2023-06-14T00:31:28;6.70;;;4.80;;
3995;SDS011;2012;49.794;9.722;2023-06-14T00:33:55;5.83;;;5.13;;
3995;SDS011;2012;49.794;9.722;2023-06-14T00:36:22;6.13;;;5.40;;
3995;SDS011;2012;49.794;9.722;2023-06-14T00:38:48;11.50;;;5.00;;
3995;SDS011;2012;49.794;9.722;2023-06-14T00:41:15;10.33;;;5.43;;
3995;SDS011;2012;49.794;9.722;2023-06-14T00:43:42;6.53;;;5.27;;
3995;SDS011;2012;49.794;9.722;2023-06-14T00:46:09;8.80;;;5.30;;
3995;SDS011;2012;49.794;9.722;2023-06-14T00:48:36;9.67;;;5.17;;
3995;SDS011;2012;49.794;9.722;2023-06-14T00:51:05;16.53;;;5.60;;
3995;SDS011;2012;49.794;9.722;2023-06-14T00:53:32;7.63;;;5.23;;
3995;SDS011;2012;49.794;9.722;2023-06-14T00:56:02;6.60;;;5.20;;
3995;SDS011;2012;49.794;9.722;2023-06-14T00:58:29;9.30;;;5.30;;
3995;SDS011;2012;49.794;9.722;2023-06-14T01:00:57;6.37;;;5.47;;
3995;SDS011;2012;49.794;9.722;2023-06-14T01:03:24;15.10;;;4.30;;
3995;SDS011;2012;49.794;9.722;2023-06-14T01:05:53;7.87;;;5.40;;
3995;SDS011;2012;49.794;9.722;2023-06-14T01:08:34;5.17;;;4.50;;
3995;SDS011;2012;49.794;9.722;2023-06-14T01:11:22;7.23;;;4.70;;
3995;SDS011;2012;49.794;9.722;2023-06-14T01:13:58;5.30;;;4.63;;
3995;SDS011;2012;49.794;9.722;2023-06-14T01:16:28;6.73;;;5.00;;
3995;SDS011;2012;49.794;9.722;2023-06-14T01:18:58;5.13;;;4.40;;
3995;SDS011;2012;49.794;9.722;2023-06-14T01:21:25;6.27;;;4.60;;
3995;SDS011;2012;49.794;9.722;2023-06-14T01:23:54;9.17;;;6.17;;
3995;SDS011;2012;49.794;9.722;2023-06-14T01:26:24;12.70;;;5.80;;
3995;SDS011;2012;49.794;9.722;2023-06-14T01:28:55;6.10;;;5.13;;
3995;SDS011;2012;49.794;9.722;2023-06-14T01:31:24;11.17;;;5.50;;
3995;SDS011;2012;49.794;9.722;2023-06-14T01:33:53;6.00;;;4.97;;
3995;SDS011;2012;49.794;9.722;2023-06-14T01:36:22;8.53;;;5.80;;
3995;SDS011;2012;49.794;9.722;2023-06-14T01:38:52;8.30;;;4.90;;
3995;SDS011;2012;49.794;9.722;2023-06-14T01:41:19;6.90;;;5.70;;
3995;SDS011;2012;49.794;9.722;2023-06-14T01:43:51;9.63;;;5.00;;
3995;SDS011;2012;49.794;9.722;2023-06-14T01:46:19;5.53;;;4.43;;
3995;SDS011;2012;49.794;9.722;2023-06-14T01:48:46;7.50;;;5.10;;
3995;SDS011;2012;49.794;9.722;2023-06-14T01:51:13;10.20;;;5.00;;
3995;SDS011;2012;49.794;9.722;2023-06-14T01:53:41;18.83;;;5.40;;
3995;SDS011;2012;49.794;9.722;2023-06-14T01:56:09;8.40;;;5.30;;
3995;SDS011;2012;49.794;9.722;2023-06-14T01:58:36;12.33;;;6.00;;
3995;SDS011;2012;49.794;9.722;2023-06-14T02:01:03;6.00;;;5.40;;
3995;SDS011;2012;49.794;9.722;2023-06-14T02:03:30;5.93;;;5.07;;
3995;SDS011;2012;49.794;9.722;2023-06-14T02:05:57;7.07;;;5.43;;
3995;SDS011;2012;49.794;9.722;2023-06-14T02:08:25;6.20;;;4.90;;
3995;SDS011;2012;49.794;9.722;2023-06-14T02:10:52;9.57;;;5.37;;
3995;SDS011;2012;49.794;9.722;2023-06-14T02:13:20;6.57;;;4.90;;
3995;SDS011;2012;49.794;9.722;2023-06-14T02:15:47;6.47;;;5.27;;
3995;SDS011;2012;49.794;9.722;2023-06-14T02:18:17;11.80;;;4.50;;
3995;SDS011;2012;49.794;9.722;2023-06-14T02:20:45;7.80;;;5.40;;
3995;SDS011;2012;49.794;9.722;2023-06-14T02:23:11;12.40;;;5.60;;
3995;SDS011;2012;49.794;9.722;2023-06-14T02:25:39;12.93;;;5.20;;
3995;SDS011;2012;49.794;9.722;2023-06-14T02:28:06;9.90;;;5.53;;
3995;SDS011;2012;49.794;9.722;2023-06-14T02:30:34;5.60;;;4.73;;
3995;SDS011;2012;49.794;9.722;2023-06-14T02:33:00;10.90;;;6.50;;
3995;SDS011;2012;49.794;9.722;2023-06-14T02:35:29;10.77;;;5.27;;
3995;SDS011;2012;49.794;9.722;2023-06-14T02:37:56;5.50;;;5.00;;
3995;SDS011;2012;49.794;9.722;2023-06-14T02:40:23;5.30;;;4.80;;
3995;SDS011;2012;49.794;9.722;2023-06-14T02:42:50;7.47;;;4.67;;
3995;SDS011;2012;49.794;9.722;2023-06-14T02:45:17;6.80;;;5.00;;
3995;SDS011;2012;49.794;9.722;2023-06-14T02:47:44;5.17;;;4.50;;
3995;SDS011;2012;49.794;9.722;2023-06-14T02:50:12;7.20;;;5.20;;
3995;SDS011;2012;49.794;9.722;2023-06-14T02:52:39;8.60;;;5.40;;
3995;SDS011;2012;49.794;9.722;2023-06-14T02:55:08;7.27;;;5.57;;
3995;SDS011;2012;49.794;9.722;2023-06-14T02:57:36;7.03;;;5.37;;
3995;SDS011;2012;49.794;9.722;2023-06-14T03:00:05;7.43;;;4.77;;
3995;SDS011;2012;49.794;9.722;2023-06-14T03:02:36;6.10;;;5.00;;
3995;SDS011;2012;49.794;9.722;2023-06-14T03:05:04;7.57;;;5.90;;
3995;SDS011;2012;49.794;9.722;2023-06-14T03:07:33;12.70;;;5.23;;
3995;SDS011;2012;49.794;9.722;2023-06-14T03:10:02;5.27;;;4.57;;
3995;SDS011;2012;49.794;9.722;2023-06-14T03:12:29;6.83;;;5.00;;
3995;SDS011;2012;49.794;9.722;2023-06-14T03:14:57;7.60;;;5.00;;
3995;SDS011;2012;49.794;9.722;2023-06-14T03:17:30;5.57;;;4.90;;
3995;SDS011;2012;49.794;9.722;2023-06-14T03:20:01;11.40;;;5.47;;
3995;SDS011;2012;49.794;9.722;2023-06-14T03:22:29;5.97;;;5.37;;
3995;SDS011;2012;49.794;9.722;2023-06-14T03:24:58;7.17;;;5.20;;
3995;SDS011;2012;49.794;9.722;2023-06-14T03:27:26;5.83;;;5.23;;
3995;SDS011;2012;49.794;9.722;2023-06-14T03:29:55;7.17;;;5.40;;
3995;SDS011;2012;49.794;9.722;2023-06-14T03:32:22;6.97;;;4.73;;
3995;SDS011;2012;49.794;9.722;2023-06-14T03:34:49;4.53;;;4.07;;
3995;SDS011;2012;49.794;9.722;2023-06-14T03:37:20;6.80;;;5.07;;
3995;SDS011;2012;49.794;9.722;2023-06-14T03:39:47;6.33;;;4.50;;
3995;SDS011;2012;49.794;9.722;2023-06-14T03:42:19;7.20;;;5.20;;
3995;SDS011;2012;49.794;9.722;2023-06-14T03:44:46;8.37;;;5.50;;
3995;SDS011;2012;49.794;9.722;2023-06-14T03:47:14;7.63;;;5.27;;
3995;SDS011;2012;49.794;9.722;2023-06-14T03:49:41;8.83;;;5.17;;
3995;SDS011;2012;49.794;9.722;2023-06-14T03:52:08;9.27;;;4.90;;
3995;SDS011;2012;49.794;9.722;2023-06-14T03:54:37;7.90;;;5.00;;
3995;SDS011;2012;49.794;9.722;2023-06-14T03:57:08;12.20;;;4.97;;
3995;SDS011;2012;49.794;9.722;2023-06-14T03:59:35;6.90;;;5.07;;
3995;SDS011;2012;49.794;9.722;2023-06-14T04:02:03;7.00;;;5.40;;
3995;SDS011;2012;49.794;9.722;2023-06-14T04:04:31;8.23;;;5.20;;
3995;SDS011;2012;49.794;9.722;2023-06-14T04:06:59;5.00;;;4.50;;
3995;SDS011;2012;49.794;9.722;2023-06-14T04:09:27;12.67;;;4.87;;
3995;SDS011;2012;49.794;9.722;2023-06-14T04:11:54;16.23;;;5.57;;
3995;SDS011;2012;49.794;9.722;2023-06-14T04:14:22;16.23;;;5.60;;
3995;SDS011;2012;49.794;9.722;2023-06-14T04:16:50;8.40;;;5.00;;
3995;SDS011;2012;49.794;9.722;2023-06-14T04:19:18;10.73;;;5.73;;
3995;SDS011;2012;49.794;9.722;2023-06-14T04:21:45;7.00;;;4.70;;
3995;SDS011;2012;49.794;9.722;2023-06-14T04:24:14;6.70;;;4.80;;
3995;SDS011;2012;49.794;9.722;2023-06-14T04:26:44;9.63;;;4.73;;
3995;SDS011;2012;49.794;9.722;2023-06-14T04:29:15;8.90;;;5.43;;
3995;SDS011;2012;49.794;9.722;2023-06-14T04:31:46;7.30;;;5.70;;
3995;SDS011;2012;49.794;9.722;2023-06-14T04:34:13;6.73;;;5.63;;
3995;SDS011;2012;49.794;9.722;2023-06-14T04:36:48;8.00;;;4.90;;
3995;SDS011;2012;49.794;9.722;2023-06-14T04:39:16;17.67;;;5.77;;
3995;SDS011;2012;49.794;9.722;2023-06-14T04:41:46;6.10;;;4.73;;
3995;SDS011;2012;49.794;9.722;2023-06-14T04:44:13;5.83;;;5.20;;
3995;SDS011;2012;49.794;9.722;2023-06-14T04:46:45;8.43;;;4.90;;
3995;SDS011;2012;49.794;9.722;2023-06-14T04:49:16;10.10;;;5.43;;
3995;SDS011;2012;49.794;9.722;2023-06-14T04:51:45;12.30;;;4.90;;
3995;SDS011;2012;49.794;9.722;2023-06-14T04:54:13;13.87;;;6.07;;
3995;SDS011;2012;49.794;9.722;2023-06-14T04:56:41;5.40;;;4.90;;
3995;SDS011;2012;49.794;9.722;2023-06-14T04:59:12;9.27;;;5.37;;
3995;SDS011;2012;49.794;9.722;2023-06-14T05:01:41;10.10;;;5.40;;
3995;SDS011;2012;49.794;9.722;2023-06-14T05:04:08;8.67;;;4.80;;
3995;SDS011;2012;49.794;9.722;2023-06-14T05:06:35;8.50;;;4.90;;
3995;SDS011;2012;49.794;9.722;2023-06-14T05:09:02;6.40;;;5.13;;
3995;SDS011;2012;49.794;9.722;2023-06-14T05:11:29;15.03;;;5.03;;
3995;SDS011;2012;49.794;9.722;2023-06-14T05:13:56;8.20;;;4.97;;
3995;SDS011;2012;49.794;9.722;2023-06-14T05:16:24;12.50;;;4.60;;
3995;SDS011;2012;49.794;9.722;2023-06-14T05:18:53;13.43;;;5.13;;
3995;SDS011;2012;49.794;9.722;2023-06-14T05:21:21;8.67;;;5.20;;
3995;SDS011;2012;49.794;9.722;2023-06-14T05:23:48;10.10;;;5.13;;
3995;SDS011;2012;49.794;9.722;2023-06-14T05:26:15;8.13;;;4.80;;
3995;SDS011;2012;49.794;9.722;2023-06-14T05:28:42;9.63;;;5.10;;
3995;SDS011;2012;49.794;9.722;2023-06-14T05:31:09;12.93;;;4.80;;
3995;SDS011;2012;49.794;9.722;2023-06-14T05:33:36;19.30;;;6.00;;
3995;SDS011;2012;49.794;9.722;2023-06-14T05:36:03;15.87;;;5.40;;
3995;SDS011;2012;49.794;9.722;2023-06-14T05:38:32;12.10;;;5.40;;
3995;SDS011;2012;49.794;9.722;2023-06-14T05:40:59;7.23;;;5.03;;
3995;SDS011;2012;49.794;9.722;2023-06-14T05:43:26;12.97;;;5.30;;
3995;SDS011;2012;49.794;9.722;2023-06-14T05:45:52;10.97;;;5.63;;
3995;SDS011;2012;49.794;9.722;2023-06-14T05:48:19;8.80;;;4.50;;
3995;SDS011;2012;49.794;9.722;2023-06-14T05:50:46;12.03;;;4.80;;
3995;SDS011;2012;49.794;9.722;2023-06-14T05:53:13;6.20;;;4.33;;
3995;SDS011;2012;49.794;9.722;2023-06-14T05:55:40;5.83;;;4.20;;
3995;SDS011;2012;49.794;9.722;2023-06-14T05:58:07;8.10;;;4.63;;
3995;SDS011;2012;49.794;9.722;2023-06-14T06:00:34;10.23;;;4.43;;
3995;SDS011;2012;49.794;9.722;2023-06-14T06:03:01;13.03;;;4.90;;
3995;SDS011;2012;49.794;9.722;2023-06-14T06:05:28;8.80;;;4.17;;
3995;SDS011;2012;49.794;9.722;2023-06-14T06:07:55;7.30;;;4.70;;
3995;SDS011;2012;49.794;9.722;2023-06-14T06:10:22;17.00;;;4.60;;
3995;SDS011;2012;49.794;9.722;2023-06-14T06:12:49;7.73;;;4.53;;
3995;SDS011;2012;49.794;9.722;2023-06-14T06:15:18;8.47;;;4.47;;
3995;SDS011;2012;49.794;9.722;2023-06-14T06:17:45;13.17;;;4.40;;
3995;SDS011;2012;49.794;9.722;2023-06-14T06:20:22;10.33;;;3.90;;
3995;SDS011;2012;49.794;9.722;2023-06-14T06:22:55;12.57;;;5.10;;
3995;SDS011;2012;49.794;9.722;2023-06-14T06:25:22;10.17;;;4.80;;
3995;SDS011;2012;49.794;9.722;2023-06-14T06:27:49;7.03;;;4.23;;
3995;SDS011;2012;49.794;9.722;2023-06-14T06:30:16;8.77;;;4.60;;
3995;SDS011;2012;49.794;9.722;2023-06-14T06:32:44;8.33;;;4.43;;
3995;SDS011;2012;49.794;9.722;2023-06-14T06:35:11;8.83;;;4.57;;
3995;SDS011;2012;49.794;9.722;2023-06-14T06:37:40;9.47;;;4.90;;
3995;SDS011;2012;49.794;9.722;2023-06-14T06:40:08;10.40;;;4.33;;
3995;SDS011;2012;49.794;9.722;2023-06-14T06:42:36;6.70;;;4.40;;
3995;SDS011;2012;49.794;9.722;2023-06-14T06:45:04;4.60;;;4.20;;
3995;SDS011;2012;49.794;9.722;2023-06-14T06:47:32;6.13;;;4.50;;
3995;SDS011;2012;49.794;9.722;2023-06-14T06:49:59;13.00;;;4.20;;
3995;SDS011;2012;49.794;9.722;2023-06-14T06:52:26;11.77;;;4.67;;
3995;SDS011;2012;49.794;9.722;2023-06-14T06:54:52;8.10;;;4.60;;
3995;SDS011;2012;49.794;9.722;2023-06-14T06:57:21;8.20;;;4.40;;
3995;SDS011;2012;49.794;9.722;2023-06-14T06:59:49;11.93;;;4.60;;
3995;SDS011;2012;49.794;9.722;2023-06-14T07:02:16;7.30;;;4.57;;
3995;SDS011;2012;49.794;9.722;2023-06-14T07:04:44;9.83;;;4.83;;
3995;SDS011;2012;49.794;9.722;2023-06-14T07:07:11;4.50;;;4.00;;
3995;SDS011;2012;49.794;9.722;2023-06-14T07:09:38;8.00;;;4.03;;
3995;SDS011;2012;49.794;9.722;2023-06-14T07:12:05;4.87;;;4.00;;
3995;SDS011;2012;49.794;9.722;2023-06-14T07:14:33;7.73;;;4.30;;
3995;SDS011;2012;49.794;9.722;2023-06-14T07:17:00;4.47;;;3.90;;
3995;SDS011;2012;49.794;9.722;2023-06-14T07:19:27;8.60;;;4.43;;
3995;SDS011;2012;49.794;9.722;2023-06-14T07:21:54;10.80;;;4.50;;
3995;SDS011;2012;49.794;9.722;2023-06-14T07:24:22;8.70;;;4.37;;
3995;SDS011;2012;49.794;9.722;2023-06-14T07:26:49;7.20;;;4.37;;
3995;SDS011;2012;49.794;9.722;2023-06-14T07:29:15;6.57;;;4.40;;
3995;SDS011;2012;49.794;9.722;2023-06-14T07:31:42;6.03;;;4.70;;
3995;SDS011;2012;49.794;9.722;2023-06-14T07:34:09;5.27;;;4.00;;
3995;SDS011;2012;49.794;9.722;2023-06-14T07:36:36;10.93;;;4.23;;
3995;SDS011;2012;49.794;9.722;2023-06-14T07:39:04;5.77;;;4.50;;
3995;SDS011;2012;49.794;9.722;2023-06-14T07:41:32;6.23;;;4.33;;
3995;SDS011;2012;49.794;9.722;2023-06-14T07:44:00;9.80;;;3.70;;
3995;SDS011;2012;49.794;9.722;2023-06-14T07:46:27;10.60;;;4.33;;
3995;SDS011;2012;49.794;9.722;2023-06-14T07:48:54;10.23;;;5.50;;
3995;SDS011;2012;49.794;9.722;2023-06-14T07:51:21;9.67;;;3.60;;
3995;SDS011;2012;49.794;9.722;2023-06-14T07:53:48;10.37;;;4.43;;
3995;SDS011;2012;49.794;9.722;2023-06-14T07:56:15;5.47;;;3.93;;
3995;SDS011;2012;49.794;9.722;2023-06-14T07:58:42;15.67;;;3.60;;
3995;SDS011;2012;49.794;9.722;2023-06-14T08:01:09;4.33;;;3.90;;
3995;SDS011;2012;49.794;9.722;2023-06-14T08:03:37;7.67;;;4.40;;
3995;SDS011;2012;49.794;9.722;2023-06-14T08:06:05;7.60;;;4.73;;
3995;SDS011;2012;49.794;9.722;2023-06-14T08:08:33;8.67;;;4.40;;
3995;SDS011;2012;49.794;9.722;2023-06-14T08:11:00;8.97;;;4.20;;
3995;SDS011;2012;49.794;9.722;2023-06-14T08:13:27;11.63;;;4.87;;
3995;SDS011;2012;49.794;9.722;2023-06-14T08:15:54;9.70;;;3.43;;
3995;SDS011;2012;49.794;9.722;2023-06-14T08:18:23;9.30;;;4.20;;
3995;SDS011;2012;49.794;9.722;2023-06-14T08:20:51;6.50;;;4.00;;
3995;SDS011;2012;49.794;9.722;2023-06-14T08:23:18;5.07;;;4.00;;
3995;SDS011;2012;49.794;9.722;2023-06-14T08:25:47;6.97;;;3.50;;
3995;SDS011;2012;49.794;9.722;2023-06-14T08:28:14;7.77;;;3.90;;
3995;SDS011;2012;49.794;9.722;2023-06-14T08:30:41;13.60;;;3.50;;
3995;SDS011;2012;49.794;9.722;2023-06-14T08:33:09;10.53;;;4.20;;
3995;SDS011;2012;49.794;9.722;2023-06-14T08:35:42;7.57;;;4.47;;
3995;SDS011;2012;49.794;9.722;2023-06-14T08:38:10;6.90;;;3.30;;
3995;SDS011;2012;49.794;9.722;2023-06-14T08:40:38;10.40;;;3.73;;
3995;SDS011;2012;49.794;9.722;2023-06-14T08:43:06;5.73;;;3.90;;
3995;SDS011;2012;49.794;9.722;2023-06-14T08:45:34;12.00;;;3.83;;
3995;SDS011;2012;49.794;9.722;2023-06-14T08:48:01;10.30;;;4.07;;
3995;SDS011;2012;49.794;9.722;2023-06-14T08:50:28;14.13;;;5.27;;
3995;SDS011;2012;49.794;9.722;2023-06-14T08:53:00;9.30;;;3.67;;
3995;SDS011;2012;49.794;9.722;2023-06-14T08:55:30;6.53;;;3.80;;
3995;SDS011;2012;49.794;9.722;2023-06-14T08:58:03;8.83;;;3.83;;
3995;SDS011;2012;49.794;9.722;2023-06-14T09:00:31;7.03;;;3.50;;
3995;SDS011;2012;49.794;9.722;2023-06-14T09:03:00;8.03;;;4.30;;
3995;SDS011;2012;49.794;9.722;2023-06-14T09:05:27;13.00;;;3.73;;
3995;SDS011;2012;49.794;9.722;2023-06-14T09:07:55;3.80;;;3.47;;
3995;SDS011;2012;49.794;9.722;2023-06-14T09:10:31;8.10;;;4.07;;
3995;SDS011;2012;49.794;9.722;2023-06-14T09:13:04;6.30;;;3.40;;
3995;SDS011;2012;49.794;9.722;2023-06-14T09:15:31;16.83;;;3.73;;
3995;SDS011;2012;49.794;9.722;2023-06-14T09:18:00;5.70;;;3.90;;
3995;SDS011;2012;49.794;9.722;2023-06-14T09:20:29;10.33;;;4.13;;
3995;SDS011;2012;49.794;9.722;2023-06-14T09:22:57;8.03;;;3.70;;
3995;SDS011;2012;49.794;9.722;2023-06-14T09:25:24;7.93;;;3.50;;
3995;SDS011;2012;49.794;9.722;2023-06-14T09:28:06;7.10;;;3.67;;
3995;SDS011;2012;49.794;9.722;2023-06-14T09:30:35;7.60;;;4.10;;
3995;SDS011;2012;49.794;9.722;2023-06-14T09:33:03;7.77;;;4.37;;
3995;SDS011;2012;49.794;9.722;2023-06-14T09:35:31;13.03;;;3.57;;
3995;SDS011;2012;49.794;9.722;2023-06-14T09:37:58;4.67;;;4.10;;
3995;SDS011;2012;49.794;9.722;2023-06-14T09:40:26;13.87;;;4.57;;
3995;SDS011;2012;49.794;9.722;2023-06-14T09:42:53;6.97;;;3.60;;
3995;SDS011;2012;49.794;9.722;2023-06-14T09:45:21;5.77;;;3.90;;
3995;SDS011;2012;49.794;9.722;2023-06-14T09:47:50;6.60;;;3.43;;
3995;SDS011;2012;49.794;9.722;2023-06-14T09:50:31;7.63;;;4.13;;
3995;SDS011;2012;49.794;9.722;2023-06-14T09:53:00;4.67;;;3.60;;
3995;SDS011;2012;49.794;9.722;2023-06-14T09:55:34;7.03;;;3.53;;
3995;SDS011;2012;49.794;9.722;2023-06-14T09:58:04;7.20;;;3.93;;
3995;SDS011;2012;49.794;9.722;2023-06-14T10:00:34;8.60;;;3.93;;
3995;SDS011;2012;49.794;9.722;2023-06-14T10:03:12;11.47;;;3.53;;
3995;SDS011;2012;49.794;9.722;2023-06-14T10:05:44;6.07;;;2.93;;
3995;SDS011;2012;49.794;9.722;2023-06-14T10:08:14;3.67;;;3.33;;
3995;SDS011;2012;49.794;9.722;2023-06-14T10:10:43;6.10;;;2.77;;
3995;SDS011;2012;49.794;9.722;2023-06-14T10:13:11;5.07;;;3.27;;
3995;SDS011;2012;49.794;9.722;2023-06-14T10:18:27;4.57;;;2.93;;
3995;SDS011;2012;49.794;9.722;2023-06-14T10:23:42;11.10;;;3.23;;
3995;SDS011;2012;49.794;9.722;2023-06-14T10:26:21;10.60;;;3.23;;
3995;SDS011;2012;49.794;9.722;2023-06-14T10:28:59;17.23;;;3.67;;
3995;SDS011;2012;49.794;9.722;2023-06-14T10:31:47;6.03;;;3.07;;
3995;SDS011;2012;49.794;9.722;2023-06-14T10:34:25;5.13;;;3.03;;
3995;SDS011;2012;49.794;9.722;2023-06-14T10:39:31;4.33;;;3.00;;
3995;SDS011;2012;49.794;9.722;2023-06-14T10:42:06;11.83;;;3.10;;
3995;SDS011;2012;49.794;9.722;2023-06-14T10:44:38;9.10;;;3.20;;
3995;SDS011;2012;49.794;9.722;2023-06-14T10:47:06;4.43;;;3.27;;
3995;SDS011;2012;49.794;9.722;2023-06-14T10:49:45;3.90;;;3.00;;
3995;SDS011;2012;49.794;9.722;2023-06-14T10:52:15;3.10;;;2.90;;
3995;SDS011;2012;49.794;9.722;2023-06-14T10:57:30;4.00;;;3.00;;
3995;SDS011;2012;49.794;9.722;2023-06-14T11:00:16;4.53;;;3.30;;
3995;SDS011;2012;49.794;9.722;2023-06-14T11:05:41;4.70;;;2.90;;
3995;SDS011;2012;49.794;9.722;2023-06-14T11:08:25;9.73;;;2.83;;
3995;SDS011;2012;49.794;9.722;2023-06-14T11:10:54;4.90;;;3.00;;
3995;SDS011;2012;49.794;9.722;2023-06-14T11:13:25;3.50;;;3.00;;
3995;SDS011;2012;49.794;9.722;2023-06-14T11:15:56;7.10;;;3.23;;
3995;SDS011;2012;49.794;9.722;2023-06-14T11:18:24;3.77;;;2.93;;
3995;SDS011;2012;49.794;9.722;2023-06-14T11:20:51;3.90;;;3.20;;
3995;SDS011;2012;49.794;9.722;2023-06-14T11:23:18;8.13;;;3.20;;
3995;SDS011;2012;49.794;9.722;2023-06-14T11:25:51;6.60;;;3.03;;
3995;SDS011;2012;49.794;9.722;2023-06-14T11:28:18;5.80;;;2.77;;
3995;SDS011;2012;49.794;9.722;2023-06-14T11:30:48;5.40;;;2.60;;
3995;SDS011;2012;49.794;9.722;2023-06-14T11:33:25;9.67;;;3.03;;
3995;SDS011;2012;49.794;9.722;2023-06-14T11:35:52;4.73;;;2.90;;
3995;SDS011;2012;49.794;9.722;2023-06-14T11:38:19;3.50;;;2.70;;
3995;SDS011;2012;49.794;9.722;2023-06-14T11:40:46;16.50;;;3.17;;
3995;SDS011;2012;49.794;9.722;2023-06-14T11:43:13;3.80;;;2.87;;
3995;SDS011;2012;49.794;9.722;2023-06-14T11:45:40;5.60;;;3.40;;
3995;SDS011;2012;49.794;9.722;2023-06-14T11:48:07;5.17;;;2.70;;
3995;SDS011;2012;49.794;9.722;2023-06-14T11:50:37;4.07;;;2.97;;
3995;SDS011;2012;49.794;9.722;2023-06-14T11:53:04;7.50;;;3.93;;
3995;SDS011;2012;49.794;9.722;2023-06-14T11:55:37;9.67;;;3.30;;
3995;SDS011;2012;49.794;9.722;2023-06-14T11:58:04;9.90;;;2.90;;
3995;SDS011;2012;49.794;9.722;2023-06-14T12:00:31;4.90;;;3.03;;
3995;SDS011;2012;49.794;9.722;2023-06-14T12:02:58;8.23;;;3.00;;
3995;SDS011;2012;49.794;9.722;2023-06-14T12:05:26;2.63;;;2.37;;
3995;SDS011;2012;49.794;9.722;2023-06-14T12:07:59;8.67;;;2.80;;
3995;SDS011;2012;49.794;9.722;2023-06-14T12:10:29;7.60;;;2.60;;
3995;SDS011;2012;49.794;9.722;2023-06-14T12:13:05;12.90;;;2.60;;
3995;SDS011;2012;49.794;9.722;2023-06-14T12:15:32;6.13;;;2.93;;
3995;SDS011;2012;49.794;9.722;2023-06-14T12:17:59;3.50;;;2.33;;
3995;SDS011;2012;49.794;9.722;2023-06-14T12:20:29;2.60;;;2.10;;
3995;SDS011;2012;49.794;9.722;2023-06-14T12:23:02;8.90;;;2.40;;
3995;SDS011;2012;49.794;9.722;2023-06-14T12:25:30;6.50;;;2.27;;
3995;SDS011;2012;49.794;9.722;2023-06-14T12:27:59;9.13;;;2.40;;
3995;SDS011;2012;49.794;9.722;2023-06-14T12:30:37;6.80;;;2.80;;
3995;SDS011;2012;49.794;9.722;2023-06-14T12:33:04;16.97;;;2.87;;
3995;SDS011;2012;49.794;9.722;2023-06-14T12:35:32;6.40;;;2.87;;
3995;SDS011;2012;49.794;9.722;2023-06-14T12:37:59;2.60;;;2.40;;
3995;SDS011;2012;49.794;9.722;2023-06-14T12:40:26;4.60;;;2.63;;
3995;SDS011;2012;49.794;9.722;2023-06-14T12:42:53;2.17;;;2.07;;
3995;SDS011;2012;49.794;9.722;2023-06-14T12:45:20;6.57;;;2.90;;
3995;SDS011;2012;49.794;9.722;2023-06-14T12:47:47;6.00;;;2.30;;
3995;SDS011;2012;49.794;9.722;2023-06-14T12:50:14;3.07;;;2.50;;
3995;SDS011;2012;49.794;9.722;2023-06-14T12:52:41;5.70;;;1.90;;
3995;SDS011;2012;49.794;9.722;2023-06-14T12:55:08;2.17;;;1.97;;
3995;SDS011;2012;49.794;9.722;2023-06-14T12:57:35;2.60;;;2.10;;
3995;SDS011;2012;49.794;9.722;2023-06-14T13:00:03;3.00;;;2.37;;
3995;SDS011;2012;49.794;9.722;2023-06-14T13:02:31;4.63;;;2.33;;
3995;SDS011;2012;49.794;9.722;2023-06-14T13:04:59;2.90;;;2.23;;
3995;SDS011;2012;49.794;9.722;2023-06-14T13:07:26;3.70;;;2.20;;
3995;SDS011;2012;49.794;9.722;2023-06-14T13:09:53;2.60;;;2.20;;
3995;SDS011;2012;49.794;9.722;2023-06-14T13:12:20;2.07;;;1.73;;
3995;SDS011;2012;49.794;9.722;2023-06-14T13:14:47;7.13;;;2.37;;
3995;SDS011;2012;49.794;9.722;2023-06-14T13:17:14;7.33;;;2.30;;
3995;SDS011;2012;49.794;9.722;2023-06-14T13:19:41;2.30;;;2.07;;
3995;SDS011;2012;49.794;9.722;2023-06-14T13:22:08;4.10;;;1.90;;
3995;SDS011;2012;49.794;9.722;2023-06-14T13:24:36;4.50;;;2.23;;
3995;SDS011;2012;49.794;9.722;2023-06-14T13:27:02;3.40;;;2.40;;
3995;SDS011;2012;49.794;9.722;2023-06-14T13:29:29;7.67;;;2.60;;
3995;SDS011;2012;49.794;9.722;2023-06-14T13:31:57;2.83;;;2.30;;
3995;SDS011;2012;49.794;9.722;2023-06-14T13:34:24;4.43;;;2.17;;
3995;SDS011;2012;49.794;9.722;2023-06-14T13:36:51;4.03;;;2.10;;
3995;SDS011;2012;49.794;9.722;2023-06-14T13:39:18;9.60;;;2.50;;
3995;SDS011;2012;49.794;9.722;2023-06-14T13:41:45;4.20;;;2.10;;
3995;SDS011;2012;49.794;9.722;2023-06-14T13:44:11;3.70;;;2.20;;
3995;SDS011;2012;49.794;9.722;2023-06-14T13:46:42;5.57;;;2.50;;
3995;SDS011;2012;49.794;9.722;2023-06-14T13:49:09;2.50;;;2.30;;
3995;SDS011;2012;49.794;9.722;2023-06-14T13:51:36;4.60;;;2.30;;
3995;SDS011;2012;49.794;9.722;2023-06-14T13:54:04;3.10;;;1.80;;
3995;SDS011;2012;49.794;9.722;2023-06-14T13:56:31;3.67;;;2.10;;
3995;SDS011;2012;49.794;9.722;2023-06-14T13:58:58;4.50;;;2.43;;
3995;SDS011;2012;49.794;9.722;2023-06-14T14:01:26;4.03;;;2.23;;
3995;SDS011;2012;49.794;9.722;2023-06-14T14:03:55;2.30;;;2.03;;
3995;SDS011;2012;49.794;9.722;2023-06-14T14:06:22;4.43;;;2.30;;
3995;SDS011;2012;49.794;9.722;2023-06-14T14:08:49;5.73;;;2.63;;
3995;SDS011;2012;49.794;9.722;2023-06-14T14:11:16;9.83;;;2.97;;
3995;SDS011;2012;49.794;9.722;2023-06-14T14:13:42;9.20;;;2.90;;
3995;SDS011;2012;49.794;9.722;2023-06-14T14:16:09;10.13;;;2.43;;
3995;SDS011;2012;49.794;9.722;2023-06-14T14:18:36;3.77;;;2.70;;
3995;SDS011;2012;49.794;9.722;2023-06-14T14:21:04;4.87;;;2.50;;
3995;SDS011;2012;49.794;9.722;2023-06-14T14:23:31;6.70;;;2.50;;
3995;SDS011;2012;49.794;9.722;2023-06-14T14:25:58;5.97;;;2.40;;
3995;SDS011;2012;49.794;9.722;2023-06-14T14:28:27;5.40;;;2.43;;
3995;SDS011;2012;49.794;9.722;2023-06-14T14:30:53;4.33;;;2.20;;
3995;SDS011;2012;49.794;9.722;2023-06-14T14:33:21;3.40;;;2.13;;
3995;SDS011;2012;49.794;9.722;2023-06-14T14:35:48;6.43;;;2.20;;
3995;SDS011;2012;49.794;9.722;2023-06-14T14:38:15;5.13;;;2.60;;
3995;SDS011;2012;49.794;9.722;2023-06-14T14:40:43;2.83;;;2.40;;
3995;SDS011;2012;49.794;9.722;2023-06-14T14:43:10;3.47;;;2.10;;
3995;SDS011;2012;49.794;9.722;2023-06-14T14:45:37;12.53;;;2.27;;
3995;SDS011;2012;49.794;9.722;2023-06-14T14:48:04;4.83;;;2.93;;
3995;SDS011;2012;49.794;9.722;2023-06-14T14:50:32;11.83;;;2.13;;
3995;SDS011;2012;49.794;9.722;2023-06-14T14:52:59;4.60;;;1.60;;
3995;SDS011;2012;49.794;9.722;2023-06-14T14:55:26;3.83;;;2.43;;
3995;SDS011;2012;49.794;9.722;2023-06-14T14:57:53;5.23;;;1.77;;
3995;SDS011;2012;49.794;9.722;2023-06-14T15:00:20;4.20;;;2.80;;
3995;SDS011;2012;49.794;9.722;2023-06-14T15:02:47;9.10;;;2.10;;
3995;SDS011;2012;49.794;9.722;2023-06-14T15:05:14;5.07;;;2.27;;
3995;SDS011;2012;49.794;9.722;2023-06-14T15:07:41;5.00;;;1.83;;
3995;SDS011;2012;49.794;9.722;2023-06-14T15:10:08;3.23;;;1.97;;
3995;SDS011;2012;49.794;9.722;2023-06-14T15:12:35;2.43;;;2.23;;
3995;SDS011;2012;49.794;9.722;2023-06-14T15:15:02;5.73;;;2.27;;
3995;SDS011;2012;49.794;9.722;2023-06-14T15:17:29;3.13;;;1.77;;
3995;SDS011;2012;49.794;9.722;2023-06-14T15:19:56;5.23;;;2.37;;
3995;SDS011;2012;49.794;9.722;2023-06-14T15:22:23;4.60;;;1.93;;
3995;SDS011;2012;49.794;9.722;2023-06-14T15:24:50;2.83;;;2.10;;
3995;SDS011;2012;49.794;9.722;2023-06-14T15:27:17;6.20;;;2.20;;
3995;SDS011;2012;49.794;9.722;2023-06-14T15:29:44;5.90;;;2.50;;
3995;SDS011;2012;49.794;9.722;2023-06-14T15:32:16;5.57;;;1.90;;
3995;SDS011;2012;49.794;9.722;2023-06-14T15:34:43;3.70;;;2.17;;